sensor_id;sensor_type;location;lat;lon;timestamp;P1;durP1;ratioP1;P2;durP2;ratioP2
24301;SDS011;12421;49.732;20.078;2023-05-07T00:05:39;15.70;;;12.00;;
24301;SDS011;12421;49.732;20.078;2023-05-07T00:15:44;12.10;;;10.80;;
24301;SDS011;12421;49.732;20.078;2023-05-07T00:25:47;12.40;;;10.70;;
24301;SDS011;12421;49.732;20.078;2023-05-07T00:35:50;13.70;;;11.30;;
24301;SDS011;12421;49.732;20.078;2023-05-07T00:45:54;13.40;;;10.70;;
24301;SDS011;12421;49.732;20.078;2023-05-07T00:55:58;13.10;;;11.40;;
24301;SDS011;12421;49.732;20.078;2023-05-07T01:06:04;12.50;;;10.10;;
24301;SDS011;12421;49.732;20.078;2023-05-07T01:16:10;13.40;;;10.60;;
24301;SDS011;12421;49.732;20.078;2023-05-07T01:26:15;18.80;;;12.90;;
24301;SDS011;12421;49.732;20.078;2023-05-07T01:36:20;14.40;;;12.00;;
24301;SDS011;12421;49.732;20.078;2023-05-07T01:46:28;18.50;;;12.60;;
24301;SDS011;12421;49.732;20.078;2023-05-07T01:56:34;16.00;;;12.50;;
24301;SDS011;12421;49.732;20.078;2023-05-07T02:06:38;14.40;;;12.00;;
24301;SDS011;12421;49.732;20.078;2023-05-07T02:16:43;11.30;;;9.40;;
24301;SDS011;12421;49.732;20.078;2023-05-07T02:26:48;11.00;;;7.50;;
24301;SDS011;12421;49.732;20.078;2023-05-07T02:36:51;8.50;;;6.30;;
24301;SDS011;12421;49.732;20.078;2023-05-07T02:46:57;8.10;;;6.60;;
24301;SDS011;12421;49.732;20.078;2023-05-07T02:57:01;11.20;;;7.80;;
24301;SDS011;12421;49.732;20.078;2023-05-07T03:07:05;10.50;;;8.20;;
24301;SDS011;12421;49.732;20.078;2023-05-07T03:17:08;11.00;;;9.40;;
24301;SDS011;12421;49.732;20.078;2023-05-07T03:27:11;10.70;;;9.30;;
24301;SDS011;12421;49.732;20.078;2023-05-07T03:37:15;13.90;;;12.20;;
24301;SDS011;12421;49.732;20.078;2023-05-07T03:47:18;16.00;;;12.80;;
24301;SDS011;12421;49.732;20.078;2023-05-07T03:57:22;15.60;;;13.40;;
24301;SDS011;12421;49.732;20.078;2023-05-07T04:07:26;16.60;;;14.60;;
24301;SDS011;12421;49.732;20.078;2023-05-07T04:17:29;21.70;;;17.30;;
24301;SDS011;12421;49.732;20.078;2023-05-07T04:27:33;27.80;;;18.90;;
24301;SDS011;12421;49.732;20.078;2023-05-07T04:37:36;22.00;;;16.70;;
24301;SDS011;12421;49.732;20.078;2023-05-07T04:47:40;16.30;;;12.50;;
24301;SDS011;12421;49.732;20.078;2023-05-07T04:57:44;11.40;;;8.40;;
24301;SDS011;12421;49.732;20.078;2023-05-07T05:07:49;18.70;;;11.40;;
24301;SDS011;12421;49.732;20.078;2023-05-07T05:17:52;12.80;;;8.70;;
24301;SDS011;12421;49.732;20.078;2023-05-07T05:27:56;8.50;;;6.00;;
24301;SDS011;12421;49.732;20.078;2023-05-07T05:37:59;10.60;;;6.30;;
24301;SDS011;12421;49.732;20.078;2023-05-07T05:48:03;9.80;;;6.10;;
24301;SDS011;12421;49.732;20.078;2023-05-07T05:58:07;6.50;;;4.40;;
24301;SDS011;12421;49.732;20.078;2023-05-07T06:08:13;9.80;;;6.70;;
24301;SDS011;12421;49.732;20.078;2023-05-07T06:18:16;8.20;;;5.40;;
24301;SDS011;12421;49.732;20.078;2023-05-07T06:28:19;6.00;;;3.90;;
24301;SDS011;12421;49.732;20.078;2023-05-07T06:38:23;3.60;;;2.50;;
24301;SDS011;12421;49.732;20.078;2023-05-07T06:48:26;2.20;;;1.50;;
24301;SDS011;12421;49.732;20.078;2023-05-07T06:58:36;6.40;;;1.80;;
24301;SDS011;12421;49.732;20.078;2023-05-07T07:08:40;3.80;;;2.30;;
24301;SDS011;12421;49.732;20.078;2023-05-07T07:18:46;3.90;;;2.40;;
24301;SDS011;12421;49.732;20.078;2023-05-07T07:28:49;5.10;;;3.20;;
24301;SDS011;12421;49.732;20.078;2023-05-07T07:38:55;4.00;;;2.10;;
24301;SDS011;12421;49.732;20.078;2023-05-07T07:48:58;2.20;;;1.20;;
24301;SDS011;12421;49.732;20.078;2023-05-07T07:59:03;3.30;;;0.70;;
24301;SDS011;12421;49.732;20.078;2023-05-07T08:09:07;2.10;;;0.90;;
24301;SDS011;12421;49.732;20.078;2023-05-07T08:19:12;1.60;;;0.80;;
24301;SDS011;12421;49.732;20.078;2023-05-07T08:29:15;1.60;;;0.90;;
24301;SDS011;12421;49.732;20.078;2023-05-07T08:39:19;1.70;;;0.90;;
24301;SDS011;12421;49.732;20.078;2023-05-07T08:49:24;2.00;;;1.20;;
24301;SDS011;12421;49.732;20.078;2023-05-07T08:59:27;2.10;;;1.10;;
24301;SDS011;12421;49.732;20.078;2023-05-07T09:09:32;2.20;;;1.10;;
24301;SDS011;12421;49.732;20.078;2023-05-07T09:19:37;2.30;;;1.50;;
24301;SDS011;12421;49.732;20.078;2023-05-07T09:29:41;2.50;;;1.40;;
24301;SDS011;12421;49.732;20.078;2023-05-07T09:39:45;2.50;;;1.60;;
24301;SDS011;12421;49.732;20.078;2023-05-07T09:49:54;3.90;;;1.60;;
24301;SDS011;12421;49.732;20.078;2023-05-07T10:00:04;3.00;;;1.80;;
24301;SDS011;12421;49.732;20.078;2023-05-07T10:10:22;4.00;;;2.80;;
24301;SDS011;12421;49.732;20.078;2023-05-07T10:20:27;4.50;;;2.90;;
24301;SDS011;12421;49.732;20.078;2023-05-07T10:30:38;2.50;;;1.60;;
24301;SDS011;12421;49.732;20.078;2023-05-07T10:41:03;4.70;;;2.20;;
24301;SDS011;12421;49.732;20.078;2023-05-07T10:51:20;4.60;;;2.60;;
24301;SDS011;12421;49.732;20.078;2023-05-07T11:01:50;17.90;;;8.80;;
24301;SDS011;12421;49.732;20.078;2023-05-07T11:12:01;25.50;;;8.80;;
24301;SDS011;12421;49.732;20.078;2023-05-07T11:32:57;7.00;;;3.80;;
24301;SDS011;12421;49.732;20.078;2023-05-07T11:43:09;11.30;;;5.70;;
24301;SDS011;12421;49.732;20.078;2023-05-07T11:53:13;8.20;;;5.50;;
24301;SDS011;12421;49.732;20.078;2023-05-07T12:03:16;6.80;;;4.70;;
24301;SDS011;12421;49.732;20.078;2023-05-07T12:13:22;6.40;;;4.60;;
24301;SDS011;12421;49.732;20.078;2023-05-07T12:23:28;8.20;;;5.30;;
24301;SDS011;12421;49.732;20.078;2023-05-07T12:33:32;8.10;;;5.50;;
24301;SDS011;12421;49.732;20.078;2023-05-07T12:43:35;6.50;;;4.70;;
24301;SDS011;12421;49.732;20.078;2023-05-07T12:53:39;7.30;;;4.60;;
24301;SDS011;12421;49.732;20.078;2023-05-07T13:03:47;7.40;;;5.00;;
24301;SDS011;12421;49.732;20.078;2023-05-07T13:13:52;5.80;;;4.80;;
24301;SDS011;12421;49.732;20.078;2023-05-07T13:23:55;8.30;;;5.60;;
24301;SDS011;12421;49.732;20.078;2023-05-07T13:33:58;7.20;;;6.10;;
24301;SDS011;12421;49.732;20.078;2023-05-07T13:44:01;7.30;;;6.30;;
24301;SDS011;12421;49.732;20.078;2023-05-07T13:54:05;7.50;;;6.20;;
24301;SDS011;12421;49.732;20.078;2023-05-07T14:04:08;8.80;;;6.40;;
24301;SDS011;12421;49.732;20.078;2023-05-07T14:14:14;7.90;;;6.30;;
24301;SDS011;12421;49.732;20.078;2023-05-07T14:24:17;8.10;;;6.10;;
24301;SDS011;12421;49.732;20.078;2023-05-07T14:34:39;7.70;;;5.30;;
24301;SDS011;12421;49.732;20.078;2023-05-07T14:44:42;9.60;;;5.80;;
24301;SDS011;12421;49.732;20.078;2023-05-07T14:54:47;8.40;;;6.70;;
24301;SDS011;12421;49.732;20.078;2023-05-07T15:04:50;6.80;;;5.70;;
24301;SDS011;12421;49.732;20.078;2023-05-07T15:14:54;8.60;;;6.80;;
24301;SDS011;12421;49.732;20.078;2023-05-07T15:24:57;10.20;;;7.40;;
24301;SDS011;12421;49.732;20.078;2023-05-07T15:35:01;8.50;;;5.70;;
24301;SDS011;12421;49.732;20.078;2023-05-07T15:45:05;9.20;;;6.30;;
24301;SDS011;12421;49.732;20.078;2023-05-07T15:55:09;6.70;;;4.70;;
24301;SDS011;12421;49.732;20.078;2023-05-07T16:05:13;8.20;;;5.30;;
24301;SDS011;12421;49.732;20.078;2023-05-07T16:15:16;10.30;;;6.40;;
24301;SDS011;12421;49.732;20.078;2023-05-07T16:25:19;9.40;;;6.00;;
24301;SDS011;12421;49.732;20.078;2023-05-07T16:35:23;9.40;;;6.50;;
24301;SDS011;12421;49.732;20.078;2023-05-07T16:45:26;6.90;;;5.40;;
24301;SDS011;12421;49.732;20.078;2023-05-07T16:55:29;8.60;;;5.50;;
24301;SDS011;12421;49.732;20.078;2023-05-07T17:05:41;7.20;;;4.90;;
24301;SDS011;12421;49.732;20.078;2023-05-07T17:15:44;9.90;;;6.30;;
24301;SDS011;12421;49.732;20.078;2023-05-07T17:25:49;7.70;;;5.20;;
24301;SDS011;12421;49.732;20.078;2023-05-07T17:35:52;7.60;;;5.00;;
24301;SDS011;12421;49.732;20.078;2023-05-07T17:45:56;6.90;;;4.90;;
24301;SDS011;12421;49.732;20.078;2023-05-07T17:56:00;8.00;;;5.90;;
24301;SDS011;12421;49.732;20.078;2023-05-07T18:06:05;8.60;;;6.60;;
24301;SDS011;12421;49.732;20.078;2023-05-07T18:16:11;8.70;;;6.00;;
24301;SDS011;12421;49.732;20.078;2023-05-07T18:26:16;9.30;;;6.90;;
24301;SDS011;12421;49.732;20.078;2023-05-07T18:36:20;8.70;;;6.40;;
24301;SDS011;12421;49.732;20.078;2023-05-07T18:46:26;7.40;;;5.70;;
24301;SDS011;12421;49.732;20.078;2023-05-07T18:56:31;8.40;;;5.70;;
24301;SDS011;12421;49.732;20.078;2023-05-07T19:06:39;10.80;;;7.60;;
24301;SDS011;12421;49.732;20.078;2023-05-07T19:16:43;9.20;;;7.50;;
24301;SDS011;12421;49.732;20.078;2023-05-07T19:26:51;12.60;;;8.90;;
24301;SDS011;12421;49.732;20.078;2023-05-07T19:36:55;9.50;;;7.40;;
24301;SDS011;12421;49.732;20.078;2023-05-07T19:46:59;9.70;;;6.90;;
24301;SDS011;12421;49.732;20.078;2023-05-07T19:57:04;10.80;;;7.70;;
24301;SDS011;12421;49.732;20.078;2023-05-07T20:07:10;10.20;;;6.20;;
24301;SDS011;12421;49.732;20.078;2023-05-07T20:17:13;9.80;;;6.70;;
24301;SDS011;12421;49.732;20.078;2023-05-07T20:27:18;8.70;;;6.20;;
24301;SDS011;12421;49.732;20.078;2023-05-07T20:37:24;12.10;;;5.40;;
24301;SDS011;12421;49.732;20.078;2023-05-07T20:47:32;11.20;;;6.30;;
24301;SDS011;12421;49.732;20.078;2023-05-07T20:57:35;14.40;;;5.90;;
24301;SDS011;12421;49.732;20.078;2023-05-07T21:07:39;8.00;;;5.40;;
24301;SDS011;12421;49.732;20.078;2023-05-07T21:17:42;13.70;;;6.10;;
24301;SDS011;12421;49.732;20.078;2023-05-07T21:27:45;8.30;;;5.50;;
24301;SDS011;12421;49.732;20.078;2023-05-07T21:37:49;7.70;;;5.30;;
24301;SDS011;12421;49.732;20.078;2023-05-07T21:47:52;8.30;;;5.70;;
24301;SDS011;12421;49.732;20.078;2023-05-07T21:57:55;10.00;;;6.30;;
24301;SDS011;12421;49.732;20.078;2023-05-07T22:08:07;8.00;;;6.10;;
24301;SDS011;12421;49.732;20.078;2023-05-07T22:18:10;10.10;;;6.50;;
24301;SDS011;12421;49.732;20.078;2023-05-07T22:28:13;9.60;;;6.00;;
24301;SDS011;12421;49.732;20.078;2023-05-07T22:38:17;10.20;;;6.80;;
24301;SDS011;12421;49.732;20.078;2023-05-07T22:48:20;8.90;;;6.70;;
24301;SDS011;12421;49.732;20.078;2023-05-07T22:58:23;11.50;;;6.50;;
24301;SDS011;12421;49.732;20.078;2023-05-07T23:08:26;7.40;;;5.70;;
24301;SDS011;12421;49.732;20.078;2023-05-07T23:18:29;9.30;;;6.80;;
24301;SDS011;12421;49.732;20.078;2023-05-07T23:28:34;7.90;;;5.80;;
24301;SDS011;12421;49.732;20.078;2023-05-07T23:38:37;7.90;;;6.00;;
24301;SDS011;12421;49.732;20.078;2023-05-07T23:48:40;7.70;;;5.70;;
24301;SDS011;12421;49.732;20.078;2023-05-07T23:58:43;10.30;;;5.50;;
